CheckWX is a tool to help pilots better visualize weather data.  It is not intended as a substitute for an official pre-flight weather briefing.

14:58:25 UTC

UBEE TAF
Yevlakh Airport
Yevlakh, Azerbaijan
TAF UBEE 231400Z 2315/2324 32006KT CAVOK

Mar-23@
15:00 UTC

Mar-23 @ 15:00 UTC

Mar-24@
00:00 UTC

Mar-24 @ 00:00 UTC

TAF UBEE 231400Z 2315/2324 32006KT CAVOK
Wind
  • 320° at 6 KTS
Conditions
No significant weather
Cloud Levels
  • No significant clouds